Stations météo

réclame
Mon MeteoGroup
Bielsa, Espagne (8103): Température de l'air & dewpoint: 18.01.2018 04:00:00 - 24.01.2018 04:00:00 (CET)Bielsa, Espagne (8103): Vitesse du vent & gusts: 18.01.2018 04:00:00 - 24.01.2018 04:00:00 (CET)Bielsa, Espagne (8103): Direction du vent: 18.01.2018 04:00:00 - 24.01.2018 04:00:00 (CET)Bielsa, Espagne (8103): visibility: 18.01.2018 04:00:00 - 24.01.2018 04:00:00 (CET)Bielsa, Espagne (8103): Ensoleillement: 18.01.2018 04:00:00 - 24.01.2018 04:00:00 (CET)Bielsa, Espagne (8103): Quantités de précipitations: 18.01.2018 04:00:00 - 24.01.2018 04:00:00 (CET)
Date & Time tt [°C] td [°C] ff [km/h] ff [knt] fx [km/h] fx [knt] dd vv [km] sd [min] rr [mm]
24.01.2018 04:00:00 - - - - - - - - - -
24.01.2018 03:00:00 -0,2 -1,9 2 1 14 8 NNW 20 0 0,0
24.01.2018 02:00:00 0,5 -1,9 3 2 14 7 NW 20 0 0,0
24.01.2018 01:00:00 0,5 -1,7 2 1 14 8 N 20 0 -
24.01.2018 00:00:00 1,1 -1,6 2 1 14 8 NW 20 0 0,0
23.01.2018 23:00:00 1,6 -1,3 3 1 11 6 NW 20 0 0,0
23.01.2018 22:00:00 2,5 -1,5 6 3 13 7 WNW 20 0 0,0
23.01.2018 21:00:00 2,6 -0,8 3 2 10 5 NW 20 0 0,0
23.01.2018 20:00:00 3,4 -0,2 3 2 13 7 WNW 20 0 0,0
23.01.2018 19:00:00 4,5 0,5 3 2 17 9 NW 20 0 -
23.01.2018 18:00:00 5,8 1,2 3 1 7 4 NNW 20 0 0,0
23.01.2018 17:00:00 7,0 0,9 1 1 9 5 N 20 0 0,0
23.01.2018 16:00:00 8,3 1,5 1 1 8 5 W 20 0 0,0
23.01.2018 15:00:00 9,6 1,8 4 2 10 5 NW 20 21 0,0
23.01.2018 14:00:00 14,7 0,9 4 2 16 9 ESE 20 55 0,0
23.01.2018 13:00:00 14,2 1,5 2 1 9 5 W 20 60 -
23.01.2018 12:00:00 11,8 0,9 3 1 5 3 WSW 20 60 0,0
23.01.2018 11:00:00 8,5 -0,8 1 1 13 7 ESE 20 60 0,0
23.01.2018 10:00:00 3,8 -1,5 1 1 14 8 N 20 7 0,0
23.01.2018 09:00:00 2,2 -2,7 3 2 12 7 WNW 20 0 0,0
23.01.2018 08:00:00 2,6 -3,3 5 3 12 7 WNW 20 0 0,0
23.01.2018 07:00:00 2,7 -3,4 6 3 13 7 NNW 20 0 -
23.01.2018 06:00:00 1,0 -2,2 1 1 13 7 N 20 0 0,0
23.01.2018 05:00:00 1,6 -3,1 2 1 10 5 ESE 20 0 0,0
23.01.2018 04:00:00 2,5 -2,6 3 2 13 7 NNW 20 0 0,0
23.01.2018 03:00:00 3,9 -2,7 3 2 9 5 NW 20 0 0,0
23.01.2018 02:00:00 6,1 -3,2 2 1 19 11 E 20 0 0,0
23.01.2018 01:00:00 9,4 -6,8 8 4 29 16 NNW 20 0 -
23.01.2018 00:00:00 10,7 -6,6 13 7 29 16 NW 20 0 0,0
22.01.2018 23:00:00 10,6 -3,4 11 6 31 17 NW 20 0 0,0
22.01.2018 22:00:00 10,5 -0,3 10 6 34 18 NNW 20 0 0,0
22.01.2018 21:00:00 10,6 0,4 14 8 28 15 NW 20 0 0,0
22.01.2018 20:00:00 9,7 1,4 8 4 18 10 NW 20 0 0,0
22.01.2018 19:00:00 10,9 0,9 9 5 37 20 NNW 20 0 -
22.01.2018 18:00:00 13,4 -0,2 19 11 51 28 NNW 20 0 0,0
22.01.2018 17:00:00 14,3 -3,9 18 10 42 23 NW 20 0 0,0
22.01.2018 16:00:00 15,3 -5,1 16 9 39 21 WNW 20 0 0,0
22.01.2018 15:00:00 13,5 4,1 5 3 14 8 ESE 20 19 0,0
22.01.2018 14:00:00 16,2 2,3 5 3 15 8 ESE 20 45 0,0
22.01.2018 13:00:00 15,9 -0,3 5 3 14 8 ESE 20 60 -
22.01.2018 12:00:00 14,6 -1,0 6 3 20 11 ESE 20 60 0,0
22.01.2018 11:00:00 - - - - - - - - - -
22.01.2018 10:00:00 3,4 0,1 1 1 6 3 SE 20 6 0,0
22.01.2018 09:00:00 3,4 -0,8 2 1 11 6 ESE 20 0 0,0
22.01.2018 08:00:00 5,7 -1,4 7 4 18 10 NW 20 0 0,0
22.01.2018 07:00:00 6,0 -1,4 7 4 18 10 NW 20 0 -
22.01.2018 06:00:00 6,5 -1,4 6 3 16 9 NNW 20 0 0,0
22.01.2018 05:00:00 7,6 -1,3 9 5 26 14 NW 20 0 0,0
22.01.2018 04:00:00 7,8 -0,9 14 8 25 14 NW 20 0 0,0
22.01.2018 03:00:00 8,1 -0,6 12 7 28 15 NW 20 0 0,0
22.01.2018 02:00:00 8,5 0,0 11 6 24 13 NW 20 0 0,0
22.01.2018 01:00:00 4,9 1,9 2 1 9 5 NW 20 0 -
22.01.2018 00:00:00 5,9 2,6 4 2 13 7 NNW 20 0 0,0
21.01.2018 23:00:00 7,8 2,3 2 1 16 9 NNW 20 0 0,0
21.01.2018 22:00:00 8,7 2,7 3 1 24 13 SSE 20 0 0,0
21.01.2018 21:00:00 9,7 3,0 10 5 24 13 NNW 20 0 0,0
21.01.2018 20:00:00 11,3 3,1 9 5 25 13 NNW 20 0 0,0
21.01.2018 19:00:00 12,6 3,0 10 6 27 14 NW 20 0 -
21.01.2018 18:00:00 13,2 3,3 13 7 34 18 NW 20 0 0,0
21.01.2018 17:00:00 13,5 3,6 16 9 37 20 NW 20 0 0,0
21.01.2018 16:00:00 13,6 4,0 16 8 41 22 NW 20 0 0,0
21.01.2018 15:00:00 14,0 3,8 18 10 45 24 NW 20 17 0,0
21.01.2018 14:00:00 15,1 5,1 21 12 42 23 NW 20 60 0,0
21.01.2018 13:00:00 13,4 6,1 15 8 38 20 NW 20 58 -
21.01.2018 12:00:00 10,9 9,7 3 1 15 8 SSW 20 28 0,0
21.01.2018 11:00:00 9,5 9,0 4 2 20 11 ESE 20 22 0,0
21.01.2018 10:00:00 7,3 7,0 2 1 14 8 NNW 20 0 0,2
21.01.2018 09:00:00 5,9 5,6 4 2 10 5 NW 20 0 0,0
21.01.2018 08:00:00 5,7 5,4 3 2 14 8 NNE 10 0 0,4
21.01.2018 07:00:00 6,0 5,7 3 1 9 5 WNW 11 0 -
21.01.2018 06:00:00 6,2 5,9 3 1 10 5 NNW 20 0 0,2
21.01.2018 05:00:00 6,1 5,8 3 1 13 7 SW 20 0 0,6
21.01.2018 04:00:00 6,2 5,9 2 1 9 5 SE 20 0 0,2
21.01.2018 03:00:00 6,2 5,9 3 2 8 5 ENE 20 0 0,0
21.01.2018 02:00:00 5,9 5,6 2 1 9 5 E 9 0 0,2
21.01.2018 01:00:00 - - - - - - - - - -
21.01.2018 00:00:00 6,0 5,7 4 2 10 6 NW 16 0 0,4
20.01.2018 23:00:00 6,2 5,9 3 2 8 5 SE 20 0 0,2
20.01.2018 22:00:00 6,0 5,7 4 2 13 7 W 13 0 0,6
20.01.2018 21:00:00 6,4 6,1 4 2 11 6 ESE 13 0 0,8
20.01.2018 20:00:00 6,2 5,9 5 3 10 5 ESE 11 0 0,4
20.01.2018 19:00:00 5,9 5,5 3 2 9 5 E 9 0 -
20.01.2018 18:00:00 6,4 5,4 3 1 7 4 ESE 20 0 0,2
20.01.2018 17:00:00 7,5 5,1 2 1 8 4 SE 17 0 0,0
20.01.2018 16:00:00 8,6 3,5 2 1 6 4 ESE 20 0 0,0
20.01.2018 15:00:00 8,7 2,1 3 2 9 5 NNW 20 0 0,0
20.01.2018 14:00:00 8,1 1,3 3 1 14 8 ENE 20 0 0,0
20.01.2018 13:00:00 7,1 -1,1 3 2 10 5 NW 20 0 -
20.01.2018 12:00:00 6,5 -2,1 5 3 15 8 WNW 20 39 0,0
20.01.2018 11:00:00 5,1 -1,6 3 1 9 5 ESE 20 25 0,0
20.01.2018 10:00:00 3,2 -2,5 5 3 11 6 N 20 0 0,0
20.01.2018 09:00:00 1,5 -1,7 3 1 9 5 SSE 20 0 0,0
20.01.2018 08:00:00 1,2 -2,5 5 3 14 8 N 20 0 0,0
20.01.2018 07:00:00 0,5 -2,5 3 2 14 8 NNW 20 0 -
20.01.2018 06:00:00 -0,3 -3,0 4 2 13 7 E 20 0 0,0
20.01.2018 05:00:00 0,3 -2,7 2 1 14 8 NNW 20 0 0,0
20.01.2018 04:00:00 1,1 -2,6 3 2 - - NW 20 - -
20.01.2018 03:00:00 0,7 -2,5 3 2 8 4 ESE 20 0 0,0
20.01.2018 02:00:00 0,6 -2,6 2 1 13 7 E 20 0 0,0
20.01.2018 01:00:00 - - - - - - - - - -
20.01.2018 00:00:00 1,2 -2,5 3 2 13 7 NW 20 0 0,0
19.01.2018 23:00:00 1,8 -2,1 3 1 15 8 NW 20 0 0,0
19.01.2018 22:00:00 3,0 -2,5 2 1 11 6 SE 20 0 0,0
19.01.2018 21:00:00 6,1 -4,0 7 4 22 12 NW 20 0 0,0
19.01.2018 20:00:00 5,1 -3,2 8 5 18 10 NW 20 0 0,0
19.01.2018 19:00:00 6,2 -4,0 10 5 21 11 NNW 20 0 -
19.01.2018 18:00:00 7,5 -3,0 9 5 29 15 NW 20 0 0,0
19.01.2018 17:00:00 9,1 -3,4 18 10 33 18 NW 20 0 0,0
19.01.2018 16:00:00 9,3 -4,6 18 10 40 21 WNW 20 0 0,0
19.01.2018 15:00:00 10,2 -4,5 19 10 41 22 NW 20 14 0,0
19.01.2018 14:00:00 12,0 -3,7 16 9 45 25 NW 20 60 0,0
19.01.2018 13:00:00 11,5 -3,8 25 13 48 26 NW 20 60 -
19.01.2018 12:00:00 11,9 -4,6 16 9 30 16 NW 20 60 0,0
19.01.2018 11:00:00 10,5 -3,5 11 6 27 15 NNW 20 60 0,0
19.01.2018 10:00:00 0,0 -2,4 3 1 13 7 SSE 20 4 0,0
19.01.2018 09:00:00 -0,6 -2,8 4 2 14 7 NW 20 0 0,0
19.01.2018 08:00:00 0,2 -3,7 4 2 15 8 NW 20 0 0,0
19.01.2018 07:00:00 0,0 -3,4 6 3 16 8 NW 20 0 -
19.01.2018 06:00:00 -0,1 -3,0 5 3 15 8 WNW 20 0 0,0
19.01.2018 05:00:00 -0,4 -1,8 3 2 16 8 NW 20 0 0,0
19.01.2018 04:00:00 -0,5 -1,6 3 1 11 6 NNW 20 0 0,0
19.01.2018 03:00:00 -0,3 -1,1 4 2 18 10 WNW 20 0 0,0
19.01.2018 02:00:00 -0,3 -1,6 5 3 14 7 WNW 20 0 0,0
19.01.2018 01:00:00 -0,8 -1,9 1 1 16 9 NNW 20 0 -
19.01.2018 00:00:00 -0,6 -1,9 3 2 14 8 WNW 20 0 0,0
18.01.2018 23:00:00 -0,7 -1,8 1 1 14 8 NW 20 0 0,0
18.01.2018 22:00:00 -0,5 -1,9 2 1 14 8 NW 20 0 0,0
18.01.2018 21:00:00 -0,1 -1,7 2 1 14 7 NNW 20 0 0,0
18.01.2018 20:00:00 0,4 -2,1 2 1 14 8 NNW 20 0 0,0
18.01.2018 19:00:00 1,1 -1,5 3 1 16 9 NNW 20 0 -
18.01.2018 18:00:00 2,3 -1,5 5 3 20 11 NW 20 0 0,0
18.01.2018 17:00:00 3,6 -1,5 6 3 18 10 WNW 20 0 0,0
18.01.2018 16:00:00 4,4 -1,2 8 4 14 8 NW 20 0 0,0
18.01.2018 15:00:00 4,8 -0,6 3 2 8 4 NNW 20 14 0,0
18.01.2018 14:00:00 10,4 -0,4 3 2 19 10 SSW 20 60 0,0
18.01.2018 13:00:00 9,9 -3,7 8 4 23 12 ESE 20 60 -
18.01.2018 12:00:00 9,0 -1,1 1 1 6 3 SE 20 60 0,0
18.01.2018 11:00:00 4,6 -1,4 3 2 15 8 WNW 20 60 0,0
18.01.2018 10:00:00 -1,0 -3,2 2 1 16 9 ENE 20 4 0,0
18.01.2018 09:00:00 -1,4 -3,9 6 3 15 8 NW 20 0 0,0
18.01.2018 08:00:00 -2,0 -4,2 2 1 14 8 NW 20 0 0,0
18.01.2018 07:00:00 -1,7 -4,2 1 1 14 8 NNE 20 0 -
18.01.2018 06:00:00 -1,8 -4,8 2 1 14 8 NNW 20 0 0,0
18.01.2018 05:00:00 -1,4 -4,5 3 1 17 9 WNW 20 0 0,0
18.01.2018 04:00:00 -1,2 -5,0 4 2 14 7 WNW 20 0 0,0

tt = Température de l'air
td = dewpoint
ff = Vitesse du vent
fx = gusts
dd = Direction du vent
vv = visibility
sd = Ensoleillement
rr = Quantités de précipitations

stations d'obs. à proximité